createdAt,value
2022-12-17T00:03:22.346Z,1.37
2022-12-17T00:06:43.945Z,1.30
2022-12-17T00:10:07.642Z,1.21
2022-12-17T00:13:44.743Z,1.19
2022-12-17T00:17:06.272Z,1.09
2022-12-17T00:20:28.715Z,1.05
2022-12-17T00:23:51.262Z,1.06
2022-12-17T00:27:12.465Z,1.08
2022-12-17T00:30:35.044Z,1.09
2022-12-17T00:33:59.146Z,1.18
2022-12-17T00:37:21.261Z,1.29
2022-12-17T00:40:42.849Z,1.25
2022-12-17T00:44:04.229Z,1.17
2022-12-17T00:47:25.705Z,1.22
2022-12-17T00:50:50.726Z,1.26
2022-12-17T00:54:13.703Z,0.98
2022-12-17T00:57:35.861Z,0.92
2022-12-17T01:00:57.463Z,0.84
2022-12-17T01:04:19.768Z,0.85
2022-12-17T01:07:42.278Z,0.85
2022-12-17T01:11:05.762Z,0.88
2022-12-17T01:14:31.697Z,0.87
2022-12-17T01:17:53.006Z,0.87
2022-12-17T01:21:17.896Z,0.86
2022-12-17T01:24:40.573Z,0.97
2022-12-17T01:28:09.174Z,1.09
2022-12-17T01:31:35.435Z,1.10
2022-12-17T01:35:08.798Z,1.16
2022-12-17T01:38:36.417Z,1.21
2022-12-17T01:41:58.548Z,1.39
2022-12-17T01:45:27.456Z,1.37
2022-12-17T01:48:59.364Z,1.32
2022-12-17T01:52:25.608Z,1.30
2022-12-17T01:55:49.070Z,1.38
2022-12-17T01:59:12.374Z,1.40
2022-12-17T02:02:35.023Z,1.57
2022-12-17T02:06:23.243Z,1.60
2022-12-17T02:09:53.712Z,1.59
2022-12-17T02:13:26.865Z,1.56
2022-12-17T02:17:02.885Z,1.62
2022-12-17T02:20:54.364Z,1.68
2022-12-17T02:24:24.857Z,1.30
2022-12-17T02:27:54.035Z,1.22
2022-12-17T02:31:18.410Z,1.15
2022-12-17T02:34:40.355Z,1.04
2022-12-17T02:38:08.142Z,1.08
2022-12-17T02:41:33.742Z,1.08
2022-12-17T02:45:05.294Z,1.00
2022-12-17T02:48:29.270Z,1.10
2022-12-17T02:51:58.101Z,1.17
2022-12-17T02:55:27.509Z,1.12
2022-12-17T02:58:49.702Z,1.10
2022-12-17T03:02:13.910Z,1.08
2022-12-17T03:05:45.981Z,1.00
2022-12-17T03:09:18.998Z,0.87
2022-12-17T03:12:40.727Z,0.85
2022-12-17T03:16:02.175Z,0.86
2022-12-17T03:19:27.138Z,0.84
2022-12-17T03:22:52.989Z,0.95
2022-12-17T03:26:20.699Z,0.88
2022-12-17T03:29:42.593Z,0.93
2022-12-17T03:33:04.221Z,0.86
2022-12-17T03:36:28.515Z,0.84
2022-12-17T03:39:56.188Z,0.79
2022-12-17T03:43:33.232Z,0.78
2022-12-17T03:47:01.267Z,0.65
2022-12-17T03:50:26.261Z,0.57
2022-12-17T03:53:49.610Z,0.48
2022-12-17T03:57:31.535Z,0.44
2022-12-17T04:00:55.728Z,0.47
2022-12-17T04:04:18.889Z,0.40
2022-12-17T04:07:40.543Z,0.33
2022-12-17T04:11:04.091Z,0.28
2022-12-17T04:14:27.429Z,0.14
2022-12-17T04:17:53.294Z,0.07
2022-12-17T04:21:17.784Z,-0.04
2022-12-17T04:24:42.998Z,-0.15
2022-12-17T04:28:09.211Z,-0.24
2022-12-17T04:31:30.167Z,-0.31
2022-12-17T04:34:54.451Z,-0.43
2022-12-17T04:38:18.868Z,-0.40
2022-12-17T04:41:44.662Z,-0.52
2022-12-17T04:45:06.046Z,-0.48
2022-12-17T04:48:29.557Z,-0.48
2022-12-17T04:51:52.146Z,-0.52
2022-12-17T04:55:14.804Z,-0.49
2022-12-17T04:58:38.434Z,-0.43
2022-12-17T05:02:03.035Z,-0.46
2022-12-17T05:05:28.143Z,-0.45
2022-12-17T05:08:57.051Z,-0.49
2022-12-17T05:12:18.384Z,-0.50
2022-12-17T05:15:40.651Z,-0.50
2022-12-17T05:19:02.887Z,-0.59
2022-12-17T05:22:26.365Z,-0.61
2022-12-17T05:25:47.650Z,-0.63
2022-12-17T05:29:16.315Z,-0.71
2022-12-17T05:32:43.101Z,-0.69
2022-12-17T05:36:08.203Z,-0.69
2022-12-17T05:39:31.293Z,-0.70
2022-12-17T05:42:54.220Z,-0.66
2022-12-17T05:46:19.160Z,-0.62
2022-12-17T05:49:41.772Z,-0.57
2022-12-17T05:53:07.917Z,-0.55
2022-12-17T05:56:31.899Z,-0.54
2022-12-17T05:59:53.220Z,-0.50
2022-12-17T06:03:28.031Z,-0.51
2022-12-17T06:06:54.196Z,-0.51
2022-12-17T06:10:16.741Z,-0.56
2022-12-17T06:13:41.587Z,-0.49
2022-12-17T06:17:04.203Z,-0.48
2022-12-17T06:20:27.976Z,-0.52
2022-12-17T06:23:50.629Z,-0.52
2022-12-17T06:27:13.589Z,-0.46
2022-12-17T06:30:36.242Z,-0.42
2022-12-17T06:34:01.035Z,-0.39
2022-12-17T06:37:22.723Z,-0.48
2022-12-17T06:40:44.007Z,-0.53
2022-12-17T06:44:07.471Z,-0.55
2022-12-17T06:47:29.320Z,-0.50
2022-12-17T06:50:50.917Z,-0.50
2022-12-17T06:54:14.919Z,-0.56
2022-12-17T06:57:41.734Z,-0.62
2022-12-17T07:01:06.874Z,-0.59
2022-12-17T07:04:28.814Z,-0.62
2022-12-17T07:07:54.560Z,-0.68
2022-12-17T07:11:19.542Z,-0.71
2022-12-17T07:14:43.537Z,-0.72
2022-12-17T07:18:22.268Z,-0.58
2022-12-17T07:21:44.504Z,-0.56
2022-12-17T07:25:08.395Z,-0.63
2022-12-17T07:28:30.629Z,-0.63
2022-12-17T07:31:56.542Z,-0.56
2022-12-17T07:35:19.145Z,-0.61
2022-12-17T07:38:42.483Z,-0.55
2022-12-17T07:42:03.963Z,-0.51
2022-12-17T07:45:26.355Z,-0.47
2022-12-17T07:48:48.498Z,-0.34
2022-12-17T07:52:10.323Z,-0.36
2022-12-17T07:55:33.592Z,-0.44
2022-12-17T07:58:55.166Z,-0.30
2022-12-17T08:02:19.009Z,-0.24
2022-12-17T08:05:43.540Z,-0.02
2022-12-17T08:09:05.758Z,0.09
2022-12-17T08:12:33.276Z,0.09
2022-12-17T08:15:58.110Z,0.03
2022-12-17T08:19:22.503Z,-0.13
2022-12-17T08:22:45.614Z,-0.27
2022-12-17T08:26:09.857Z,-0.25
2022-12-17T08:29:31.749Z,-0.21
2022-12-17T08:32:53.741Z,-0.22
2022-12-17T08:36:16.953Z,-0.30
2022-12-17T08:39:38.829Z,-0.17
2022-12-17T08:43:06.536Z,-0.04
2022-12-17T08:46:28.574Z,0.05
2022-12-17T08:49:50.578Z,0.13
2022-12-17T08:53:18.738Z,0.27
2022-12-17T08:56:41.617Z,0.52
2022-12-17T09:00:03.399Z,0.77
2022-12-17T09:03:26.862Z,0.74
2022-12-17T09:06:49.598Z,0.71
2022-12-17T09:10:11.533Z,0.53
2022-12-17T09:13:32.910Z,0.47
2022-12-17T09:16:56.411Z,0.58
2022-12-17T09:20:18.034Z,0.16
2022-12-17T09:23:40.698Z,0.36
2022-12-17T09:27:02.631Z,0.33
2022-12-17T09:30:26.274Z,0.26
2022-12-17T09:33:49.569Z,0.17
2022-12-17T09:37:13.244Z,0.23
2022-12-17T09:40:39.378Z,0.31
2022-12-17T09:44:21.192Z,0.61
2022-12-17T09:47:42.708Z,0.37
2022-12-17T09:51:08.965Z,0.52
2022-12-17T09:54:37.435Z,0.46
2022-12-17T09:58:00.375Z,0.19
2022-12-17T10:01:22.636Z,0.19
2022-12-17T10:05:01.776Z,0.28
2022-12-17T10:08:32.562Z,0.08
2022-12-17T10:11:57.498Z,0.27
2022-12-17T10:15:22.125Z,0.23
2022-12-17T10:18:48.380Z,0.23
2022-12-17T10:22:12.654Z,0.36
2022-12-17T10:25:42.857Z,0.38
2022-12-17T10:29:29.709Z,0.34
2022-12-17T10:32:50.921Z,0.43
2022-12-17T10:36:14.709Z,0.43
2022-12-17T10:39:44.326Z,0.50
2022-12-17T10:43:10.872Z,0.36
2022-12-17T10:46:52.021Z,0.41
2022-12-17T10:50:21.943Z,0.52
2022-12-17T10:53:45.655Z,0.57
2022-12-17T10:57:14.193Z,0.85
2022-12-17T11:00:49.841Z,0.88
2022-12-17T11:04:16.955Z,0.75
2022-12-17T11:07:56.916Z,0.75
2022-12-17T11:11:23.322Z,0.92
2022-12-17T11:14:45.804Z,0.85
2022-12-17T11:18:12.038Z,0.94
2022-12-17T11:21:45.036Z,0.92
2022-12-17T11:25:17.052Z,1.32
2022-12-17T11:28:44.907Z,1.27
2022-12-17T11:32:26.082Z,1.05
2022-12-17T11:36:06.437Z,1.00
2022-12-17T11:39:42.011Z,0.99
2022-12-17T11:43:19.485Z,0.99
2022-12-17T11:47:19.860Z,0.96
2022-12-17T11:50:48.426Z,0.95
2022-12-17T11:54:21.318Z,0.70
2022-12-17T11:58:15.102Z,0.47
2022-12-17T12:01:49.402Z,0.92
2022-12-17T12:06:02.305Z,0.75
2022-12-17T12:09:52.844Z,0.69
2022-12-17T12:13:34.359Z,0.62
2022-12-17T12:17:28.009Z,0.55
2022-12-17T12:21:38.003Z,0.40
2022-12-17T12:25:21.467Z,0.58
2022-12-17T12:29:07.038Z,0.22
2022-12-17T12:33:10.027Z,0.02
2022-12-17T12:36:36.371Z,0.15
2022-12-17T12:40:15.104Z,0.10
2022-12-17T12:43:43.385Z,0.20
2022-12-17T12:47:23.549Z,0.16
2022-12-17T12:51:34.156Z,0.13
2022-12-17T12:55:13.498Z,-0.02
2022-12-17T12:58:55.707Z,0.02
2022-12-17T13:02:34.619Z,-0.06
2022-12-17T13:05:46.007Z,0.09
2022-12-17T13:08:51.455Z,0.07
2022-12-17T13:12:03.274Z,0.10
2022-12-17T13:15:21.606Z,0.17
2022-12-17T13:18:36.738Z,0.06
2022-12-17T13:21:45.855Z,0.03
2022-12-17T13:24:51.574Z,0.08
2022-12-17T13:27:57.047Z,0.31
2022-12-17T13:31:48.034Z,0.48
2022-12-17T13:35:40.695Z,0.24
2022-12-17T13:39:06.917Z,0.20
2022-12-17T13:46:18.095Z,-0.02
2022-12-17T13:49:35.242Z,-0.21
2022-12-17T13:57:15.858Z,-0.34
2022-12-17T14:00:53.467Z,-0.43
2022-12-17T14:04:23.008Z,-0.35
2022-12-17T14:07:31.599Z,-0.35
2022-12-17T14:11:15.626Z,-0.32
2022-12-17T14:14:39.924Z,-0.38
2022-12-17T14:17:51.838Z,-0.51
2022-12-17T14:21:10.698Z,-0.50
2022-12-17T14:24:14.725Z,-0.75
2022-12-17T14:28:05.315Z,-0.75
2022-12-17T14:31:36.271Z,-0.71
2022-12-17T14:34:44.380Z,-0.87
2022-12-17T14:38:03.239Z,-0.93
2022-12-17T14:41:33.227Z,-1.00
2022-12-17T14:44:55.002Z,-0.98
2022-12-17T14:48:49.197Z,-0.94
2022-12-17T14:51:51.747Z,-0.97
2022-12-17T14:54:56.099Z,-1.04
2022-12-17T14:58:40.560Z,-1.01
2022-12-17T15:01:50.122Z,-0.91
2022-12-17T15:05:08.156Z,-0.95
2022-12-17T15:08:12.554Z,-0.97
2022-12-17T15:11:26.596Z,-1.00
2022-12-17T15:14:29.065Z,-0.98
2022-12-17T15:17:35.385Z,-1.00
2022-12-17T15:24:20.879Z,-1.09
2022-12-17T15:27:24.001Z,-1.09
2022-12-17T15:30:26.489Z,-1.11
2022-12-17T15:33:28.722Z,-1.17
2022-12-17T15:36:32.237Z,-1.16
2022-12-17T15:39:34.578Z,-1.17
2022-12-17T15:42:55.716Z,-1.17
2022-12-17T15:46:01.710Z,-1.17
2022-12-17T15:49:04.032Z,-1.17
2022-12-17T15:52:06.300Z,-1.20
2022-12-17T15:55:09.973Z,-1.19
2022-12-17T15:58:12.366Z,-1.21
2022-12-17T16:01:15.172Z,-1.21
2022-12-17T16:04:23.177Z,-1.26
2022-12-17T16:07:27.472Z,-1.33
2022-12-17T16:10:30.292Z,-1.32
2022-12-17T16:13:35.823Z,-1.29
2022-12-17T16:16:38.537Z,-1.29
2022-12-17T16:19:44.448Z,-1.30
2022-12-17T16:22:48.412Z,-1.34
2022-12-17T16:26:02.335Z,-1.40
2022-12-17T16:29:04.927Z,-1.45
2022-12-17T16:32:08.441Z,-1.44
2022-12-17T16:35:11.484Z,-1.47
2022-12-17T16:38:21.301Z,-1.45
2022-12-17T16:41:24.490Z,-1.49
2022-12-17T16:44:27.932Z,-1.51
2022-12-17T16:47:31.528Z,-1.55
2022-12-17T16:50:34.210Z,-1.59
2022-12-17T16:53:37.071Z,-1.54
2022-12-17T16:56:40.910Z,-1.55
2022-12-17T16:59:43.398Z,-1.53
2022-12-17T17:02:51.464Z,-1.57
2022-12-17T17:06:02.877Z,-1.56
2022-12-17T17:09:40.519Z,-1.58
2022-12-17T17:12:43.883Z,-1.59
2022-12-17T17:15:47.116Z,-1.60
2022-12-17T17:18:51.631Z,-1.57
2022-12-17T17:21:55.081Z,-1.55
2022-12-17T17:25:01.059Z,-1.53
2022-12-17T17:28:04.642Z,-1.55
2022-12-17T17:31:21.952Z,-1.62
2022-12-17T17:34:25.658Z,-1.56
2022-12-17T17:37:37.811Z,-1.59
2022-12-17T17:40:40.378Z,-1.60
2022-12-17T17:43:45.591Z,-1.60
2022-12-17T17:46:52.730Z,-1.60
2022-12-17T17:50:00.106Z,-1.57
2022-12-17T17:53:03.302Z,-1.58
2022-12-17T17:56:41.884Z,-1.57
2022-12-17T17:59:46.298Z,-1.59
2022-12-17T18:02:49.230Z,-1.59
2022-12-17T18:05:53.631Z,-1.61
2022-12-17T18:08:57.448Z,-1.61
2022-12-17T18:12:23.475Z,-1.63
2022-12-17T18:15:45.100Z,-1.65
2022-12-17T18:18:48.086Z,-1.65
2022-12-17T18:22:06.540Z,-1.66
2022-12-17T18:25:09.176Z,-1.69
2022-12-17T18:28:12.325Z,-1.68
2022-12-17T18:31:23.036Z,-1.69
2022-12-17T18:34:38.342Z,-1.71
2022-12-17T18:37:40.895Z,-1.74
2022-12-17T18:40:44.268Z,-1.74
2022-12-17T18:43:50.062Z,-1.74
2022-12-17T18:47:00.054Z,-1.80
2022-12-17T18:50:02.930Z,-1.84
2022-12-17T18:53:05.959Z,-1.81
2022-12-17T18:56:10.619Z,-1.80
2022-12-17T18:59:28.622Z,-1.79
2022-12-17T19:02:36.218Z,-1.81
2022-12-17T19:05:49.062Z,-1.81
2022-12-17T19:09:20.460Z,-1.80
2022-12-17T19:12:23.188Z,-1.84
2022-12-17T19:15:44.132Z,-1.82
2022-12-17T19:18:52.390Z,-1.78
2022-12-17T19:21:55.536Z,-1.82
2022-12-17T19:25:00.448Z,-1.82
2022-12-17T19:28:03.688Z,-1.81
2022-12-17T19:31:13.521Z,-1.86
2022-12-17T19:34:17.968Z,-1.87
2022-12-17T19:37:40.238Z,-1.86
2022-12-17T19:40:42.894Z,-1.85
2022-12-17T19:43:56.895Z,-1.82
2022-12-17T19:47:03.834Z,-1.88
2022-12-17T19:50:06.656Z,-1.89
2022-12-17T19:53:12.295Z,-1.89
2022-12-17T19:56:30.998Z,-1.86
2022-12-17T19:59:34.778Z,-1.85
2022-12-17T20:02:37.176Z,-1.87
2022-12-17T20:05:44.349Z,-1.94
2022-12-17T20:08:57.786Z,-2.03
2022-12-17T20:12:00.697Z,-2.06
2022-12-17T20:15:06.310Z,-1.97
2022-12-17T20:18:14.026Z,-1.96
2022-12-17T20:21:19.284Z,-1.95
2022-12-17T20:24:30.336Z,-1.98
2022-12-17T20:27:34.836Z,-2.01
2022-12-17T20:30:41.599Z,-2.08
2022-12-17T20:33:44.293Z,-2.08
2022-12-17T20:36:54.327Z,-2.12
2022-12-17T20:39:56.567Z,-2.13
2022-12-17T20:42:59.143Z,-2.06
2022-12-17T20:46:02.004Z,-2.10
2022-12-17T20:49:05.721Z,-2.00
2022-12-17T20:52:07.975Z,-1.99
2022-12-17T20:55:10.445Z,-2.03
2022-12-17T20:58:13.669Z,-1.96
2022-12-17T21:01:20.651Z,-1.94
2022-12-17T21:04:25.285Z,-1.96
2022-12-17T21:07:28.782Z,-2.01
2022-12-17T21:10:31.385Z,-2.02
2022-12-17T21:13:35.655Z,-2.00
2022-12-17T21:16:40.497Z,-1.98
2022-12-17T21:19:43.131Z,-1.99
2022-12-17T21:22:47.697Z,-1.96
2022-12-17T21:26:04.283Z,-1.94
2022-12-17T21:29:28.899Z,-2.05
2022-12-17T21:32:33.835Z,-2.16
2022-12-17T21:35:44.525Z,-2.13
2022-12-17T21:38:50.604Z,-2.14
2022-12-17T21:42:12.355Z,-2.19
2022-12-17T21:45:15.120Z,-2.22
2022-12-17T21:48:18.536Z,-2.21
2022-12-17T21:51:23.861Z,-2.16
2022-12-17T21:54:26.686Z,-2.20
2022-12-17T21:57:29.671Z,-2.23
2022-12-17T22:00:32.620Z,-2.27
2022-12-17T22:03:36.056Z,-2.29
2022-12-17T22:06:44.346Z,-2.31
2022-12-17T22:10:20.089Z,-2.30
2022-12-17T22:13:46.518Z,-2.31
2022-12-17T22:16:50.947Z,-2.36
2022-12-17T22:19:54.562Z,-2.37
2022-12-17T22:22:56.865Z,-2.32
2022-12-17T22:26:00.130Z,-2.32
2022-12-17T22:29:04.032Z,-2.30
2022-12-17T22:32:26.410Z,-2.36
2022-12-17T22:38:04.714Z,-2.36
2022-12-17T22:44:07.721Z,-2.40
2022-12-17T22:44:38.219Z,-2.46
2022-12-17T22:46:13.212Z,-2.45
2022-12-17T22:49:18.080Z,-2.47
2022-12-17T22:52:21.089Z,-2.46
2022-12-17T22:55:24.518Z,-2.48
2022-12-17T22:58:28.190Z,-2.52
2022-12-17T23:01:32.767Z,-2.49
2022-12-17T23:04:37.198Z,-2.52
2022-12-17T23:07:41.206Z,-2.52
2022-12-17T23:10:44.938Z,-2.54
2022-12-17T23:13:47.927Z,-2.61
2022-12-17T23:16:50.579Z,-2.61
2022-12-17T23:19:55.549Z,-2.65
2022-12-17T23:23:03.043Z,-2.65
2022-12-17T23:26:19.543Z,-2.68
2022-12-17T23:29:23.474Z,-2.70
2022-12-17T23:32:27.754Z,-2.72
2022-12-17T23:35:30.349Z,-2.73
2022-12-17T23:38:37.672Z,-2.75
2022-12-17T23:41:46.774Z,-2.72
2022-12-17T23:44:50.065Z,-2.74
2022-12-17T23:47:55.408Z,-2.71
2022-12-17T23:50:59.215Z,-2.75
2022-12-17T23:54:06.097Z,-2.73
2022-12-17T23:57:11.263Z,-2.70
